createdAt,value
2023-05-11T00:00:09.260Z,57.05
2023-05-11T00:01:09.294Z,47.49
2023-05-11T00:02:09.297Z,41.06
2023-05-11T00:03:09.393Z,43.10
2023-05-11T00:04:09.347Z,46.82
2023-05-11T00:05:09.400Z,62.94
2023-05-11T00:06:09.413Z,71.61
2023-05-11T00:07:09.415Z,75.41
2023-05-11T00:08:09.431Z,71.67
2023-05-11T00:09:09.518Z,67.92
2023-05-11T00:10:09.548Z,71.64
2023-05-11T00:11:09.546Z,75.26
2023-05-11T00:12:09.566Z,69.24
2023-05-11T00:13:09.580Z,57.63
2023-05-11T00:14:09.623Z,59.17
2023-05-11T00:15:09.613Z,55.72
2023-05-11T00:16:09.702Z,61.81
2023-05-11T00:17:09.603Z,71.09
2023-05-11T00:18:09.602Z,76.27
2023-05-11T00:19:09.654Z,67.37
2023-05-11T00:20:09.656Z,34.67
2023-05-11T00:21:09.695Z,30.97
2023-05-11T00:22:09.740Z,35.09
2023-05-11T00:23:09.805Z,43.34
2023-05-11T00:24:09.747Z,34.72
2023-05-11T00:25:09.796Z,37.22
2023-05-11T00:26:09.843Z,47.87
2023-05-11T00:27:09.842Z,45.45
2023-05-11T00:28:09.834Z,27.95
2023-05-11T00:29:09.866Z,28.93
2023-05-11T00:30:09.873Z,34.38
2023-05-11T00:31:09.915Z,30.00
2023-05-11T00:32:09.889Z,26.19
2023-05-11T00:33:09.897Z,31.87
2023-05-11T00:34:09.945Z,42.67
2023-05-11T00:35:10.002Z,66.48
2023-05-11T00:36:10.103Z,72.09
2023-05-11T00:37:10.155Z,75.44
2023-05-11T00:38:10.194Z,74.39
2023-05-11T00:39:10.268Z,69.13
2023-05-11T00:40:10.354Z,66.66
2023-05-11T00:41:10.399Z,65.83
2023-05-11T00:42:10.453Z,69.86
2023-05-11T00:43:10.510Z,75.23
2023-05-11T00:44:10.563Z,70.62
2023-05-11T00:45:10.627Z,60.72
2023-05-11T00:46:10.651Z,65.35
2023-05-11T00:47:10.781Z,68.69
2023-05-11T00:48:10.779Z,68.25
2023-05-11T00:49:10.826Z,70.32
2023-05-11T00:50:10.879Z,74.87
2023-05-11T00:51:10.932Z,74.37
2023-05-11T00:52:10.991Z,72.52
2023-05-11T00:53:11.033Z,68.09
2023-05-11T00:54:11.121Z,62.34
2023-05-11T00:55:11.186Z,40.52
2023-05-11T00:56:11.226Z,29.68
2023-05-11T00:57:11.309Z,30.58
2023-05-11T00:58:11.377Z,27.08
2023-05-11T00:59:11.422Z,21.00
2023-05-11T01:00:11.442Z,24.91
2023-05-11T01:01:11.570Z,26.03
2023-05-11T01:02:11.521Z,28.96
2023-05-11T01:03:11.517Z,25.82
2023-05-11T01:04:11.504Z,25.00
2023-05-11T01:05:11.543Z,29.54
2023-05-11T01:06:11.505Z,30.49
2023-05-11T01:07:11.506Z,25.13
2023-05-11T01:08:11.505Z,25.42
2023-05-11T01:09:11.524Z,25.00
2023-05-11T01:10:11.501Z,26.30
2023-05-11T01:11:11.720Z,33.88
2023-05-11T01:12:11.532Z,41.59
2023-05-11T01:13:11.531Z,47.81
2023-05-11T01:14:11.554Z,47.49
2023-05-11T01:15:11.560Z,37.66
2023-05-11T01:16:11.630Z,41.62
2023-05-11T01:17:11.573Z,45.09
2023-05-11T01:18:11.694Z,43.15
2023-05-11T01:19:11.715Z,31.26
2023-05-11T01:20:11.688Z,31.13
2023-05-11T01:21:11.756Z,28.93
2023-05-11T01:22:11.793Z,33.46
2023-05-11T01:23:11.843Z,40.05
2023-05-11T01:24:11.849Z,51.18
2023-05-11T01:25:11.916Z,66.62
2023-05-11T01:26:11.988Z,59.44
2023-05-11T01:27:12.036Z,49.13
2023-05-11T01:28:12.069Z,45.80
2023-05-11T01:29:12.165Z,31.35
2023-05-11T01:30:12.259Z,34.04
2023-05-11T01:31:12.292Z,30.17
2023-05-11T01:32:12.387Z,29.21
2023-05-11T01:33:12.409Z,28.52
2023-05-11T01:34:12.466Z,32.29
2023-05-11T01:35:12.528Z,36.40
2023-05-11T01:36:12.554Z,30.52
2023-05-11T01:37:12.595Z,32.31
2023-05-11T01:38:12.594Z,28.94
2023-05-11T01:39:12.626Z,31.00
2023-05-11T01:40:12.691Z,32.34
2023-05-11T01:41:12.740Z,42.01
2023-05-11T01:42:12.832Z,45.29
2023-05-11T01:43:12.865Z,54.61
2023-05-11T01:44:12.943Z,58.98
2023-05-11T01:45:13.059Z,41.49
2023-05-11T01:46:13.093Z,27.87
2023-05-11T01:47:13.187Z,23.95
2023-05-11T01:48:13.163Z,24.29
2023-05-11T01:49:13.258Z,25.15
2023-05-11T01:50:13.219Z,25.00
2023-05-11T01:51:13.250Z,26.38
2023-05-11T01:52:13.347Z,27.43
2023-05-11T01:53:13.338Z,27.83
2023-05-11T01:54:13.374Z,30.41
2023-05-11T01:55:13.459Z,30.53
2023-05-11T01:56:13.489Z,27.29
2023-05-11T01:57:13.557Z,30.29
2023-05-11T01:58:13.617Z,29.35
2023-05-11T01:59:13.657Z,45.64
2023-05-11T02:00:13.686Z,55.21
2023-05-11T02:01:13.743Z,62.13
2023-05-11T02:02:13.784Z,51.91
2023-05-11T02:03:13.839Z,51.15
2023-05-11T02:04:13.741Z,52.71
2023-05-11T02:05:13.740Z,49.44
2023-05-11T02:06:13.733Z,51.97
2023-05-11T02:07:13.727Z,46.84
2023-05-11T02:08:13.801Z,44.59
2023-05-11T02:09:13.762Z,42.58
2023-05-11T02:10:13.779Z,40.41
2023-05-11T02:11:13.784Z,44.55
2023-05-11T02:12:13.784Z,49.09
2023-05-11T02:13:13.793Z,49.92
2023-05-11T02:14:13.811Z,53.25
2023-05-11T02:15:13.820Z,62.54
2023-05-11T02:16:13.849Z,62.11
2023-05-11T02:17:13.796Z,61.20
2023-05-11T02:18:13.837Z,68.98
2023-05-11T02:19:13.846Z,69.21
2023-05-11T02:20:13.846Z,57.68
2023-05-11T02:21:13.862Z,55.22
2023-05-11T02:22:13.867Z,52.91
2023-05-11T02:23:13.857Z,49.47
2023-05-11T02:24:13.872Z,40.54
2023-05-11T02:25:13.929Z,36.13
2023-05-11T02:26:14.372Z,30.03
2023-05-11T02:27:13.890Z,27.89
2023-05-11T02:28:13.907Z,24.82
2023-05-11T02:29:13.949Z,24.99
2023-05-11T02:30:13.963Z,26.37
2023-05-11T02:31:13.997Z,26.50
2023-05-11T02:32:13.956Z,26.61
2023-05-11T02:33:13.972Z,30.70
2023-05-11T02:34:13.985Z,37.22
2023-05-11T02:35:13.990Z,46.89
2023-05-11T02:36:14.092Z,52.99
2023-05-11T02:37:13.995Z,55.12
2023-05-11T02:38:14.004Z,60.74
2023-05-11T02:39:14.029Z,67.82
2023-05-11T02:40:14.078Z,68.43
2023-05-11T02:41:13.971Z,63.99
2023-05-11T02:42:13.991Z,59.73
2023-05-11T02:43:14.033Z,56.00
2023-05-11T02:44:14.052Z,54.60
2023-05-11T02:45:14.066Z,52.56
2023-05-11T02:46:14.067Z,47.31
2023-05-11T02:47:14.038Z,39.69
2023-05-11T02:48:14.060Z,41.82
2023-05-11T02:49:14.049Z,46.27
2023-05-11T02:50:14.044Z,43.14
2023-05-11T02:51:14.008Z,44.95
2023-05-11T02:52:14.042Z,49.06
2023-05-11T02:53:14.011Z,45.74
2023-05-11T02:54:14.034Z,46.04
2023-05-11T02:55:14.041Z,42.68
2023-05-11T02:56:14.113Z,40.29
2023-05-11T02:57:14.041Z,43.85
2023-05-11T02:58:14.069Z,50.26
2023-05-11T02:59:14.071Z,46.15
2023-05-11T03:00:14.079Z,43.90
2023-05-11T03:01:14.162Z,37.63
2023-05-11T03:02:14.106Z,38.38
2023-05-11T03:03:14.160Z,39.94
2023-05-11T03:04:14.091Z,42.34
2023-05-11T03:05:14.112Z,46.13
2023-05-11T03:06:14.109Z,53.88
2023-05-11T03:07:14.130Z,63.35
2023-05-11T03:08:14.119Z,83.82
2023-05-11T03:09:14.121Z,91.23
2023-05-11T03:10:14.161Z,91.17
2023-05-11T03:11:14.145Z,86.31
2023-05-11T03:12:14.117Z,82.79
2023-05-11T03:13:14.158Z,78.93
2023-05-11T03:14:14.148Z,79.45
2023-05-11T03:15:14.178Z,79.42
2023-05-11T03:16:14.167Z,80.39
2023-05-11T03:17:14.147Z,77.31
2023-05-11T03:18:14.199Z,75.12
2023-05-11T03:19:14.150Z,69.12
2023-05-11T03:20:14.192Z,65.83
2023-05-11T03:21:14.173Z,70.87
2023-05-11T03:22:14.181Z,73.22
2023-05-11T03:23:14.204Z,66.57
2023-05-11T03:24:14.213Z,76.38
2023-05-11T03:25:14.267Z,96.45
2023-05-11T03:26:14.244Z,106.24
2023-05-11T03:27:14.266Z,110.39
2023-05-11T03:28:14.276Z,116.60
2023-05-11T03:29:14.260Z,115.50
2023-05-11T03:30:14.372Z,113.98
2023-05-11T03:31:14.345Z,109.17
2023-05-11T03:32:14.388Z,108.81
2023-05-11T03:33:14.423Z,103.50
2023-05-11T03:34:14.418Z,103.53
2023-05-11T03:35:14.423Z,102.26
2023-05-11T03:36:14.445Z,98.75
2023-05-11T03:37:14.473Z,99.13
2023-05-11T03:38:14.498Z,100.73
2023-05-11T03:39:14.570Z,95.49
2023-05-11T03:40:14.611Z,103.80
2023-05-11T03:41:14.702Z,108.53
2023-05-11T03:42:14.716Z,108.46
2023-05-11T03:43:14.744Z,113.47
2023-05-11T03:44:14.791Z,114.31
2023-05-11T03:45:14.872Z,112.06
2023-05-11T03:46:14.922Z,113.21
2023-05-11T03:47:14.896Z,108.57
2023-05-11T03:48:14.993Z,100.98
2023-05-11T03:49:14.957Z,96.76
2023-05-11T03:50:15.061Z,97.08
2023-05-11T03:51:15.034Z,98.32
2023-05-11T03:52:15.081Z,103.29
2023-05-11T03:53:15.169Z,100.02
2023-05-11T03:54:15.200Z,94.30
2023-05-11T03:55:15.226Z,82.79
2023-05-11T03:56:15.283Z,82.09
2023-05-11T03:57:15.295Z,78.82
2023-05-11T03:58:15.286Z,80.31
2023-05-11T03:59:15.324Z,82.44
2023-05-11T04:00:15.406Z,85.02
2023-05-11T04:01:15.411Z,76.69
2023-05-11T04:02:15.457Z,76.69
2023-05-11T04:03:15.533Z,94.70
2023-05-11T04:04:15.509Z,94.41
2023-05-11T04:05:15.560Z,98.71
2023-05-11T04:06:15.575Z,93.84
2023-05-11T04:07:15.596Z,103.45
2023-05-11T04:08:15.632Z,107.10
2023-05-11T04:09:15.654Z,106.44
2023-05-11T04:10:15.755Z,102.56
2023-05-11T04:11:15.733Z,101.81
2023-05-11T04:12:15.805Z,103.58
2023-05-11T04:13:15.843Z,115.38
2023-05-11T04:14:15.888Z,120.34
2023-05-11T04:15:15.927Z,126.46
2023-05-11T04:16:16.076Z,134.45
2023-05-11T04:17:16.068Z,138.86
2023-05-11T04:18:16.053Z,137.25
2023-05-11T04:19:16.137Z,141.70
2023-05-11T04:20:16.275Z,146.47
2023-05-11T04:21:16.153Z,150.76
2023-05-11T04:22:16.234Z,142.14
2023-05-11T04:23:16.275Z,131.13
2023-05-11T04:24:16.306Z,131.97
2023-05-11T04:25:16.318Z,131.12
2023-05-11T04:26:16.393Z,130.55
2023-05-11T04:27:16.411Z,129.65
2023-05-11T04:28:16.445Z,130.41
2023-05-11T04:29:16.488Z,126.96
2023-05-11T04:30:16.640Z,123.12
2023-05-11T04:31:16.651Z,126.92
2023-05-11T04:32:16.604Z,126.10
2023-05-11T04:33:16.659Z,130.63
2023-05-11T04:34:16.705Z,127.45
2023-05-11T04:35:16.764Z,124.78
2023-05-11T04:36:17.975Z,121.79
2023-05-11T04:37:16.832Z,121.82
2023-05-11T04:38:16.884Z,120.49
2023-05-11T04:39:17.977Z,114.17
2023-05-11T04:40:17.275Z,106.14
2023-05-11T04:41:17.005Z,112.24
2023-05-11T04:42:17.072Z,108.35
2023-05-11T04:43:17.101Z,107.88
2023-05-11T04:44:17.157Z,111.00
2023-05-11T04:45:17.255Z,114.48
2023-05-11T04:46:17.284Z,119.73
2023-05-11T04:47:17.322Z,122.73
2023-05-11T04:48:20.270Z,131.59
2023-05-11T04:49:17.378Z,132.88
2023-05-11T04:50:17.622Z,131.10
2023-05-11T04:51:17.399Z,128.58
2023-05-11T04:52:17.389Z,127.55
2023-05-11T04:53:17.340Z,132.85
2023-05-11T04:54:17.352Z,139.40
2023-05-11T04:55:17.373Z,147.85
2023-05-11T04:56:17.327Z,155.90
2023-05-11T04:57:17.353Z,165.81
2023-05-11T04:58:17.328Z,164.30
2023-05-11T04:59:17.340Z,157.45
2023-05-11T05:00:17.641Z,165.50
2023-05-11T05:02:44.835Z,25.00
2023-05-11T05:03:37.229Z,25.00
2023-05-11T05:04:37.174Z,25.00
2023-05-11T05:05:37.190Z,25.00
2023-05-11T05:06:37.212Z,25.00
2023-05-11T05:07:37.150Z,25.00
2023-05-11T05:08:37.150Z,33.02
2023-05-11T05:09:37.103Z,40.33
2023-05-11T05:10:37.147Z,30.00
2023-05-11T05:11:37.187Z,27.65
2023-05-11T05:12:37.128Z,25.00
2023-05-11T05:13:37.139Z,29.55
2023-05-11T05:14:37.152Z,18.42
2023-05-11T05:15:37.154Z,27.34
2023-05-11T05:16:37.117Z,34.10
2023-05-11T05:17:37.090Z,27.74
2023-05-11T05:18:37.164Z,45.78
2023-05-11T05:19:37.071Z,61.20
2023-05-11T05:20:37.071Z,64.47
2023-05-11T05:21:37.099Z,22.41
2023-05-11T05:22:37.183Z,36.87
2023-05-11T05:23:37.159Z,47.20
2023-05-11T05:24:37.170Z,81.85
2023-05-11T05:25:37.208Z,137.92
2023-05-11T05:26:37.291Z,190.57
2023-05-11T05:27:37.342Z,189.48
2023-05-11T05:28:37.371Z,144.74
2023-05-11T05:29:37.388Z,106.87
2023-05-11T05:30:37.485Z,112.22
2023-05-11T05:31:37.675Z,95.47
2023-05-11T05:32:37.497Z,113.91
2023-05-11T05:33:37.536Z,84.35
2023-05-11T05:34:37.589Z,55.03
2023-05-11T05:35:37.613Z,19.49
2023-05-11T05:36:38.138Z,14.54
2023-05-11T05:37:37.726Z,26.58
2023-05-11T05:38:37.739Z,26.77
2023-05-11T05:39:37.776Z,28.43
2023-05-11T05:40:37.826Z,56.79
2023-05-11T05:41:38.193Z,71.11
2023-05-11T05:42:37.845Z,74.96
2023-05-11T05:43:37.960Z,93.83
2023-05-11T05:44:37.968Z,56.50
2023-05-11T05:46:57.798Z,25.00
2023-05-11T05:47:57.610Z,25.00
2023-05-11T05:48:57.606Z,25.00
2023-05-11T05:49:57.593Z,25.00
2023-05-11T05:50:57.660Z,25.00
2023-05-11T05:51:57.755Z,30.25
2023-05-11T05:52:58.651Z,8.09
2023-05-11T05:53:57.548Z,25.00
2023-05-11T05:54:57.577Z,34.07
2023-05-11T05:55:57.547Z,25.00
2023-05-11T05:56:57.906Z,42.17
2023-05-11T05:57:57.571Z,62.14
2023-05-11T05:58:57.571Z,40.80
2023-05-11T05:59:57.475Z,0.00
2023-05-11T06:00:57.541Z,0.00
2023-05-11T06:01:57.827Z,0.00
2023-05-11T06:02:57.567Z,0.00
2023-05-11T06:03:57.763Z,0.00
2023-05-11T06:04:57.690Z,0.00
2023-05-11T06:05:57.472Z,17.40
2023-05-11T06:06:57.774Z,56.23
2023-05-11T06:08:09.294Z,86.71
2023-05-11T06:08:58.552Z,87.77
2023-05-11T06:09:57.442Z,92.04
2023-05-11T06:10:57.535Z,101.02
2023-05-11T06:11:57.764Z,64.97
2023-05-11T06:12:57.401Z,22.35
2023-05-11T06:13:58.179Z,34.26
2023-05-11T06:14:57.385Z,51.27
2023-05-11T06:15:57.599Z,55.98
2023-05-11T06:16:57.744Z,0.00
2023-05-11T06:17:57.445Z,9.39
2023-05-11T06:18:57.467Z,32.57
2023-05-11T06:19:57.757Z,125.46
2023-05-11T06:20:57.477Z,79.62
2023-05-11T06:21:57.460Z,93.40
2023-05-11T06:22:57.348Z,110.22
2023-05-11T06:23:57.760Z,102.82
2023-05-11T06:24:57.832Z,123.33
2023-05-11T06:25:57.527Z,161.40
2023-05-11T06:26:57.436Z,214.61
2023-05-11T06:27:57.493Z,259.08
2023-05-11T06:28:57.506Z,268.02
2023-05-11T06:29:57.510Z,236.91
2023-05-11T06:30:57.494Z,210.66
2023-05-11T06:31:57.606Z,202.33
2023-05-11T06:32:57.734Z,202.98
2023-05-11T06:33:57.558Z,190.33
2023-05-11T06:34:57.521Z,181.60
2023-05-11T06:35:57.560Z,192.03
2023-05-11T06:36:57.552Z,169.97
2023-05-11T06:37:57.659Z,146.64
2023-05-11T06:38:57.646Z,144.76
2023-05-11T06:39:57.692Z,158.73
2023-05-11T06:40:57.837Z,144.04
2023-05-11T06:42:01.394Z,146.86
2023-05-11T06:42:59.719Z,148.06
2023-05-11T06:43:57.860Z,154.69
2023-05-11T06:44:57.816Z,158.99
2023-05-11T06:45:57.697Z,185.37
2023-05-11T06:46:57.797Z,207.79
2023-05-11T06:47:57.893Z,202.88
2023-05-11T06:48:57.711Z,221.93
2023-05-11T06:49:57.680Z,216.37
2023-05-11T06:50:59.013Z,217.35
2023-05-11T06:51:57.740Z,202.35
2023-05-11T06:52:57.827Z,198.85
2023-05-11T06:53:57.691Z,216.98
2023-05-11T06:54:57.705Z,242.07
2023-05-11T06:55:57.701Z,248.52
2023-05-11T06:56:57.756Z,249.50
2023-05-11T06:57:57.766Z,250.80
2023-05-11T06:58:57.777Z,248.04
2023-05-11T06:59:57.791Z,239.10
2023-05-11T07:00:57.915Z,235.28
2023-05-11T07:01:57.825Z,238.00
2023-05-11T07:02:57.840Z,250.00
2023-05-11T07:03:57.812Z,250.00
2023-05-11T07:04:57.845Z,250.70
2023-05-11T07:05:57.894Z,250.00
2023-05-11T07:06:57.886Z,249.72
2023-05-11T07:07:58.799Z,218.27
2023-05-11T07:09:05.625Z,174.62
2023-05-11T07:09:58.276Z,174.73
2023-05-11T07:10:57.950Z,139.84
2023-05-11T07:11:58.052Z,107.37
2023-05-11T07:12:58.259Z,89.89
2023-05-11T07:13:57.894Z,56.06
2023-05-11T07:14:58.657Z,32.53
2023-05-11T07:15:57.992Z,25.75
2023-05-11T07:16:57.980Z,18.82
2023-05-11T07:17:58.749Z,8.67
2023-05-11T07:18:57.944Z,0.00
2023-05-11T07:19:57.831Z,3.83
2023-05-11T07:20:57.860Z,18.56
2023-05-11T07:21:57.849Z,33.08
2023-05-11T07:22:58.641Z,42.11
2023-05-11T07:23:57.854Z,46.72
2023-05-11T07:24:57.818Z,51.71
2023-05-11T07:25:58.851Z,50.83
2023-05-11T07:26:57.796Z,50.21
2023-05-11T07:27:57.879Z,62.08
2023-05-11T07:28:57.857Z,68.47
2023-05-11T07:29:57.814Z,82.23
2023-05-11T07:30:57.800Z,97.37
2023-05-11T07:31:57.829Z,115.59
2023-05-11T07:32:57.883Z,117.48
2023-05-11T07:33:57.726Z,116.01
2023-05-11T07:34:57.762Z,115.81
2023-05-11T07:35:57.815Z,127.79
2023-05-11T07:36:57.843Z,140.08
2023-05-11T07:37:57.828Z,144.29
2023-05-11T07:38:57.928Z,108.65
2023-05-11T07:39:57.911Z,88.33
2023-05-11T07:40:57.964Z,104.71
2023-05-11T07:41:58.019Z,106.35
2023-05-11T07:42:58.441Z,81.55
2023-05-11T07:43:58.086Z,64.25
2023-05-11T07:44:58.204Z,41.36
2023-05-11T07:45:58.173Z,36.10
2023-05-11T07:46:58.231Z,42.17
2023-05-11T07:47:58.231Z,51.50
2023-05-11T07:49:11.377Z,44.40
2023-05-11T07:49:59.225Z,21.16
2023-05-11T07:50:58.222Z,21.81
2023-05-11T07:51:58.193Z,19.59
2023-05-11T07:52:58.334Z,20.81
2023-05-11T07:53:58.211Z,3.66
2023-05-11T07:54:58.545Z,4.46
2023-05-11T07:55:58.168Z,18.58
2023-05-11T07:56:58.145Z,32.17
2023-05-11T07:57:58.249Z,38.26
2023-05-11T07:58:58.159Z,47.81
2023-05-11T07:59:58.157Z,48.89
2023-05-11T08:00:58.159Z,47.90
2023-05-11T08:01:58.283Z,52.51
2023-05-11T08:02:58.330Z,58.90
2023-05-11T08:03:58.212Z,62.21
2023-05-11T08:04:58.209Z,48.09
2023-05-11T08:05:58.673Z,36.23
2023-05-11T08:06:58.233Z,36.20
2023-05-11T08:07:58.286Z,34.12
2023-05-11T08:08:58.332Z,25.00
2023-05-11T08:09:58.298Z,24.58
2023-05-11T08:10:58.298Z,25.00
2023-05-11T08:11:58.331Z,32.30
2023-05-11T08:12:58.351Z,40.71
2023-05-11T08:13:58.352Z,49.29
2023-05-11T08:14:58.305Z,57.28
2023-05-11T08:15:58.350Z,42.67
2023-05-11T08:16:58.349Z,50.42
2023-05-11T08:17:58.321Z,62.34
2023-05-11T08:18:58.371Z,76.73
2023-05-11T08:19:58.329Z,75.83
2023-05-11T08:20:58.463Z,51.88
2023-05-11T08:21:58.447Z,45.34
2023-05-11T08:22:58.469Z,46.06
2023-05-11T08:23:58.440Z,53.59
2023-05-11T08:24:58.479Z,39.99
2023-05-11T08:25:58.533Z,36.82
2023-05-11T08:26:58.542Z,45.75
2023-05-11T08:27:58.577Z,58.56
2023-05-11T08:29:06.469Z,79.22
2023-05-11T08:29:58.584Z,79.95
2023-05-11T08:30:58.583Z,82.79
2023-05-11T08:31:58.530Z,84.11
2023-05-11T08:32:59.538Z,80.68
2023-05-11T08:33:58.962Z,70.40
2023-05-11T08:34:59.077Z,78.35
2023-05-11T08:35:58.861Z,91.00
2023-05-11T08:36:58.510Z,112.23
2023-05-11T08:37:58.654Z,121.73
2023-05-11T08:38:59.418Z,131.14
2023-05-11T08:39:58.446Z,147.82
2023-05-11T08:40:58.515Z,150.82
2023-05-11T08:41:58.459Z,131.34
2023-05-11T08:42:58.479Z,108.53
2023-05-11T08:43:58.937Z,96.44
2023-05-11T08:44:58.617Z,83.05
2023-05-11T08:45:58.726Z,62.97
2023-05-11T08:47:14.375Z,56.61
2023-05-11T08:48:00.034Z,56.96
2023-05-11T08:48:58.758Z,59.59
2023-05-11T08:49:58.693Z,63.81
2023-05-11T08:50:58.824Z,67.64
2023-05-11T08:51:58.726Z,49.82
2023-05-11T08:52:58.851Z,29.36
2023-05-11T08:53:58.800Z,28.70
2023-05-11T08:54:58.805Z,35.12
2023-05-11T08:55:58.886Z,25.00
2023-05-11T08:56:58.946Z,28.34
2023-05-11T08:57:58.975Z,25.00
2023-05-11T08:58:59.058Z,24.24
2023-05-11T08:59:59.161Z,26.44
2023-05-11T09:00:59.235Z,34.20
2023-05-11T09:01:59.298Z,51.07
2023-05-11T09:02:59.563Z,58.21
2023-05-11T09:03:59.356Z,54.86
2023-05-11T09:04:59.450Z,63.82
2023-05-11T09:05:59.469Z,81.63
2023-05-11T09:06:59.456Z,93.60
2023-05-11T09:08:00.748Z,106.05
2023-05-11T09:08:59.639Z,80.67
2023-05-11T09:09:59.996Z,66.49
2023-05-11T09:10:59.590Z,63.03
2023-05-11T09:11:59.762Z,56.42
2023-05-11T09:12:59.811Z,55.23
2023-05-11T09:13:59.893Z,53.95
2023-05-11T09:15:02.514Z,52.62
2023-05-11T09:15:59.979Z,52.99
2023-05-11T09:16:59.977Z,49.87
2023-05-11T09:17:59.958Z,34.96
2023-05-11T09:18:59.980Z,37.01
2023-05-11T09:19:59.871Z,49.56
2023-05-11T09:20:59.828Z,59.90
2023-05-11T09:21:59.861Z,72.95
2023-05-11T09:23:00.490Z,93.00
2023-05-11T09:24:01.520Z,89.83
2023-05-11T09:24:59.805Z,84.62
2023-05-11T09:26:00.230Z,73.84
2023-05-11T09:27:00.716Z,58.31
2023-05-11T09:27:59.767Z,30.80
2023-05-11T09:30:01.366Z,36.97
2023-05-11T09:31:00.487Z,37.27
2023-05-11T09:31:59.749Z,41.07
2023-05-11T09:33:00.042Z,53.23
2023-05-11T09:34:00.973Z,79.62
2023-05-11T09:34:59.919Z,104.80
2023-05-11T09:36:00.191Z,102.75
2023-05-11T09:36:59.752Z,82.01
2023-05-11T09:37:59.772Z,78.88
2023-05-11T09:38:59.750Z,85.93
2023-05-11T09:40:25.835Z,80.84
2023-05-11T09:41:00.733Z,65.77
2023-05-11T09:41:59.768Z,70.55
2023-05-11T09:42:59.667Z,84.13
2023-05-11T09:43:59.927Z,101.28
2023-05-11T09:44:59.686Z,119.54
2023-05-11T09:45:59.766Z,134.91
2023-05-11T09:46:59.696Z,142.87
2023-05-11T09:48:00.516Z,147.86
2023-05-11T09:48:59.916Z,147.86
2023-05-11T09:49:59.764Z,141.49
2023-05-11T09:50:59.766Z,147.73
2023-05-11T09:51:59.876Z,183.57
2023-05-11T09:52:59.873Z,172.78
2023-05-11T09:53:59.909Z,191.26
2023-05-11T09:54:59.958Z,215.46
2023-05-11T09:56:00.010Z,227.30
2023-05-11T09:56:59.977Z,230.39
2023-05-11T09:58:00.008Z,228.70
2023-05-11T09:58:59.988Z,193.88
2023-05-11T10:00:00.043Z,171.33
2023-05-11T10:01:00.891Z,184.42
2023-05-11T10:02:00.599Z,199.89
2023-05-11T10:03:00.301Z,218.80
2023-05-11T10:04:09.004Z,241.09
2023-05-11T10:05:01.207Z,240.71
2023-05-11T10:06:00.225Z,241.17
2023-05-11T10:07:00.237Z,229.74
2023-05-11T10:08:00.246Z,233.34
2023-05-11T10:09:00.194Z,247.01
2023-05-11T10:10:00.241Z,250.00
2023-05-11T10:11:00.177Z,250.00
2023-05-11T10:12:00.375Z,250.62
2023-05-11T10:13:00.219Z,250.60
2023-05-11T10:14:00.148Z,249.46
2023-05-11T10:15:00.231Z,239.44
2023-05-11T10:16:00.274Z,246.18
2023-05-11T10:17:00.897Z,250.00
2023-05-11T10:18:00.242Z,238.95
2023-05-11T10:19:00.404Z,229.79
2023-05-11T10:20:00.602Z,196.54
2023-05-11T10:21:00.389Z,182.15
2023-05-11T10:22:00.461Z,181.92
2023-05-11T10:23:00.627Z,191.39
2023-05-11T10:24:00.593Z,190.71
2023-05-11T10:25:00.653Z,189.45
2023-05-11T10:26:00.581Z,178.74
2023-05-11T10:27:00.661Z,182.40
2023-05-11T10:28:02.038Z,187.47
2023-05-11T10:29:00.740Z,194.81
2023-05-11T10:30:00.818Z,196.92
2023-05-11T10:31:00.914Z,185.16
2023-05-11T10:32:00.860Z,184.16
2023-05-11T10:33:00.991Z,183.53
2023-05-11T10:34:00.998Z,190.31
2023-05-11T10:35:01.403Z,200.11
2023-05-11T10:36:01.195Z,205.46
2023-05-11T10:37:01.130Z,213.02
2023-05-11T10:38:01.209Z,200.89
2023-05-11T10:39:01.177Z,183.77
2023-05-11T10:40:01.457Z,173.21
2023-05-11T10:41:01.492Z,159.73
2023-05-11T10:42:01.350Z,159.73
2023-05-11T10:43:01.309Z,163.59
2023-05-11T10:44:03.327Z,166.12
2023-05-11T10:45:01.874Z,164.85
2023-05-11T10:46:02.283Z,181.25
2023-05-11T10:47:01.578Z,193.24
2023-05-11T10:48:01.659Z,206.37
2023-05-11T10:49:01.656Z,197.99
2023-05-11T10:50:01.665Z,195.65
2023-05-11T10:51:01.751Z,194.58
2023-05-11T10:52:01.792Z,197.21
2023-05-11T10:53:02.136Z,187.66
2023-05-11T10:54:02.240Z,179.99
2023-05-11T10:55:03.263Z,173.13
2023-05-11T10:56:01.996Z,156.95
2023-05-11T10:57:01.961Z,163.24
2023-05-11T10:58:01.958Z,155.45
2023-05-11T10:59:02.068Z,129.94
2023-05-11T11:00:02.787Z,117.40
2023-05-11T11:01:02.571Z,110.93
2023-05-11T11:02:02.212Z,111.51
2023-05-11T11:03:02.532Z,117.89
2023-05-11T11:04:02.250Z,127.94
2023-05-11T11:05:02.441Z,142.83
2023-05-11T11:06:02.259Z,168.70
2023-05-11T11:07:02.230Z,178.06
2023-05-11T11:08:02.277Z,176.34
2023-05-11T11:09:10.203Z,168.35
2023-05-11T11:10:02.311Z,168.47
2023-05-11T11:11:02.611Z,162.89
2023-05-11T11:12:02.339Z,161.79
2023-05-11T11:13:02.267Z,164.85
2023-05-11T11:14:02.270Z,170.85
2023-05-11T11:15:02.290Z,178.59
2023-05-11T11:16:02.276Z,180.68
2023-05-11T11:17:02.361Z,177.47
2023-05-11T11:18:02.362Z,184.88
2023-05-11T11:19:02.249Z,198.31
2023-05-11T11:20:02.497Z,216.73
2023-05-11T11:21:02.213Z,214.67
2023-05-11T11:22:02.225Z,207.98
2023-05-11T11:23:02.233Z,186.75
2023-05-11T11:24:02.185Z,187.48
2023-05-11T11:25:02.514Z,200.26
2023-05-11T11:26:02.249Z,213.03
2023-05-11T11:27:02.177Z,218.86
2023-05-11T11:28:02.188Z,212.55
2023-05-11T11:29:02.320Z,211.63
2023-05-11T11:30:02.406Z,193.11
2023-05-11T11:31:03.413Z,182.84
2023-05-11T11:32:02.414Z,183.46
2023-05-11T11:33:06.090Z,189.89
2023-05-11T11:34:02.465Z,190.38
2023-05-11T11:35:03.298Z,193.72
2023-05-11T11:36:02.462Z,196.46
2023-05-11T11:37:02.378Z,199.73
2023-05-11T11:38:02.490Z,195.10
2023-05-11T11:39:02.399Z,201.65
2023-05-11T11:40:13.198Z,208.46
2023-05-11T11:41:03.332Z,189.06
2023-05-11T11:42:02.350Z,162.82
2023-05-11T11:43:02.297Z,157.43
2023-05-11T11:44:02.491Z,150.09
2023-05-11T11:45:02.344Z,152.25
2023-05-11T11:46:02.382Z,163.83
2023-05-11T11:47:02.245Z,168.24
2023-05-11T11:48:02.257Z,137.88
2023-05-11T11:49:02.253Z,135.27
2023-05-11T11:50:02.349Z,136.22
2023-05-11T11:51:02.324Z,138.77
2023-05-11T11:52:02.546Z,139.22
2023-05-11T11:53:02.376Z,137.55
2023-05-11T11:54:02.506Z,143.77
2023-05-11T11:55:02.522Z,134.99
2023-05-11T11:56:02.508Z,129.04
2023-05-11T11:57:02.521Z,118.96
2023-05-11T11:58:02.526Z,127.08
2023-05-11T11:59:02.518Z,109.15
2023-05-11T12:00:02.614Z,110.21
2023-05-11T12:01:02.963Z,118.25
2023-05-11T12:02:02.537Z,124.30
2023-05-11T12:03:02.625Z,129.09
2023-05-11T12:04:02.667Z,132.66
2023-05-11T12:05:02.610Z,129.44
2023-05-11T12:06:13.452Z,141.72
2023-05-11T12:07:02.600Z,130.11
2023-05-11T12:08:02.578Z,96.09
2023-05-11T12:09:02.574Z,94.38
2023-05-11T12:10:02.602Z,105.00
2023-05-11T12:11:02.558Z,93.52
2023-05-11T12:12:02.566Z,85.14
2023-05-11T12:13:02.520Z,104.74
2023-05-11T12:14:02.526Z,97.89
2023-05-11T12:15:02.623Z,97.97
2023-05-11T12:16:02.668Z,87.78
2023-05-11T12:17:02.556Z,104.73
2023-05-11T12:18:02.693Z,107.40
2023-05-11T12:19:02.663Z,106.24
2023-05-11T12:20:02.718Z,108.80
2023-05-11T12:21:03.092Z,121.72
2023-05-11T12:22:02.776Z,103.69
2023-05-11T12:23:02.855Z,91.42
2023-05-11T12:24:02.921Z,74.74
2023-05-11T12:25:02.968Z,49.74
2023-05-11T12:26:03.012Z,37.98
2023-05-11T12:27:03.008Z,48.55
2023-05-11T12:28:03.016Z,53.04
2023-05-11T12:29:03.052Z,53.69
2023-05-11T12:30:03.124Z,60.03
2023-05-11T12:31:03.163Z,63.84
2023-05-11T12:32:03.182Z,56.83
2023-05-11T12:33:03.185Z,62.62
2023-05-11T12:34:03.130Z,73.56
2023-05-11T12:35:03.138Z,74.88
2023-05-11T12:36:03.184Z,111.06
2023-05-11T12:37:03.188Z,131.84
2023-05-11T12:38:03.266Z,118.83
2023-05-11T12:39:03.210Z,116.64
2023-05-11T12:40:03.212Z,121.27
2023-05-11T12:41:03.648Z,61.34
2023-05-11T12:42:03.304Z,66.26
2023-05-11T12:43:03.343Z,84.21
2023-05-11T12:44:03.431Z,82.97
2023-05-11T12:45:03.415Z,80.17
2023-05-11T12:46:03.598Z,72.32
2023-05-11T12:47:03.457Z,66.23